Airfield :
LOGIN :

Register | Disclaimer

   EN    FR    IT 

 










Legend :    VFR   Marginal VFR   IFR   Intensive IFR   Very Intensive IFR
Visi :
Ceiling :
>= 8 km
>= 3000ft
5 to 8 km
1000 to 3000 ft
1500m to 5 km
500 to 1000 ft
800 to 1500m
200 to 500 ft
< 800m
< 200 ft
Symbols :   Thunderstorms  Fog  Heavy snow  Heavy precipitations  Wind > 20 kt
SIGMETs :     Misc.  Thunderstorms  Icing  Turbulence  Mountain Waves  Volcanic Ashes







- Airport Elevation : 1 ft
- Download approach charts


EGCK - Caernarfon

CURRENT METAR :
  • 231750Z AUTO 28014KT 9999 FEW033/// SCT049/// 09/01 Q1002

EXPIRED METARs :
  • 231720Z AUTO 29014KT 9999 BKN031/// 08/02 Q1002
  • 231650Z 28015KT 9999 BKN029 BKN049 08/02 Q1002
  • 231620Z 28018KT 9999 SCT028 BKN044 08/02 Q1001
  • 231550Z 27018KT 9999 BKN028 09/03 Q1000
  • 231520Z 28019KT 9999 BKN029 09/03 Q0999

TAF TAF EGCK
Valid from the 23 at 18:00 until the 24 at 03:00 UTC


231657Z 2318/2403 28010KT 9999 SCT030
No reported NOTAMs for that airfield.



MET'MAP, your aeronautical weather chart ! - Copyright ORBIFLY December 2007 - Disclaimer

ORBIFLY MET'MAP TEAM :

Programming & Development : Alexandra Zaïnal
Concept & Development : Baudouin d'Aumeries
Co-Development & Prog : Marc-Olivier Méhu
Technical & hardware support : Manuel Goepfert

Contact : metmap@orbifly.com




SOURCES & CREDITS :

   NOAA